createdAt,value
2022-08-31T00:02:20.165Z,81
2022-08-31T00:05:45.335Z,81
2022-08-31T00:09:10.569Z,81
2022-08-31T00:12:35.795Z,81
2022-08-31T00:16:01.063Z,81
2022-08-31T00:19:26.267Z,81
2022-08-31T00:22:51.493Z,81
2022-08-31T00:26:16.703Z,81
2022-08-31T00:29:41.944Z,81
2022-08-31T00:33:07.140Z,81
2022-08-31T00:36:32.397Z,81
2022-08-31T00:39:57.636Z,81
2022-08-31T00:43:22.842Z,82
2022-08-31T00:46:48.050Z,82
2022-08-31T00:50:13.274Z,81
2022-08-31T00:53:38.487Z,81
2022-08-31T00:57:03.693Z,82
2022-08-31T01:00:28.895Z,81
2022-08-31T01:03:54.162Z,82
2022-08-31T01:07:19.382Z,82
2022-08-31T01:10:44.590Z,82
2022-08-31T01:14:09.796Z,82
2022-08-31T01:17:35.000Z,82
2022-08-31T01:21:00.216Z,82
2022-08-31T01:24:25.432Z,82
2022-08-31T01:27:50.650Z,81
2022-08-31T01:31:15.887Z,81
2022-08-31T01:34:41.064Z,82
2022-08-31T01:38:06.309Z,82
2022-08-31T01:41:31.537Z,82
2022-08-31T01:44:56.736Z,82
2022-08-31T01:48:21.932Z,82
2022-08-31T01:51:47.167Z,82
2022-08-31T01:55:12.354Z,83
2022-08-31T01:58:37.559Z,83
2022-08-31T02:02:02.880Z,83
2022-08-31T02:05:28.019Z,83
2022-08-31T02:08:53.233Z,83
2022-08-31T02:12:18.478Z,83
2022-08-31T02:15:43.677Z,83
2022-08-31T02:19:08.928Z,83
2022-08-31T02:22:34.115Z,83
2022-08-31T02:25:59.329Z,83
2022-08-31T02:29:24.580Z,84
2022-08-31T02:32:49.786Z,83
2022-08-31T02:36:14.975Z,83
2022-08-31T02:39:40.208Z,84
2022-08-31T02:43:05.418Z,84
2022-08-31T02:46:30.669Z,84
2022-08-31T02:49:55.860Z,84
2022-08-31T02:53:21.054Z,84
2022-08-31T02:56:46.252Z,84
2022-08-31T03:00:11.477Z,84
2022-08-31T03:03:36.671Z,84
2022-08-31T03:07:01.916Z,84
2022-08-31T03:10:27.129Z,84
2022-08-31T03:13:55.288Z,85
2022-08-31T03:17:17.578Z,85
2022-08-31T03:20:42.812Z,85
2022-08-31T03:24:08.027Z,85
2022-08-31T03:27:33.234Z,85
2022-08-31T03:30:58.522Z,85
2022-08-31T03:34:23.711Z,85
2022-08-31T03:37:48.955Z,85
2022-08-31T03:41:14.195Z,85
2022-08-31T03:44:39.431Z,86
2022-08-31T03:48:06.898Z,86
2022-08-31T03:51:29.889Z,85
2022-08-31T03:54:55.099Z,85
2022-08-31T03:58:20.305Z,85
2022-08-31T04:01:45.595Z,85
2022-08-31T04:05:10.748Z,85
2022-08-31T04:08:35.972Z,85
2022-08-31T04:12:01.161Z,85
2022-08-31T04:15:26.524Z,85
2022-08-31T04:18:51.591Z,86
2022-08-31T04:22:16.901Z,86
2022-08-31T04:25:42.100Z,86
2022-08-31T04:29:10.928Z,86
2022-08-31T04:32:32.517Z,86
2022-08-31T04:35:57.781Z,86
2022-08-31T04:39:24.112Z,86
2022-08-31T04:42:48.156Z,86
2022-08-31T04:46:13.411Z,86
2022-08-31T04:49:38.501Z,86
2022-08-31T04:53:04.176Z,86
2022-08-31T04:56:28.903Z,86
2022-08-31T04:59:54.151Z,87
2022-08-31T05:03:19.580Z,87
2022-08-31T05:06:44.630Z,87
2022-08-31T05:10:09.833Z,87
2022-08-31T05:13:35.018Z,87
2022-08-31T05:17:00.214Z,87
2022-08-31T05:20:25.398Z,87
2022-08-31T05:23:50.556Z,87
2022-08-31T05:27:15.751Z,87
2022-08-31T05:30:40.936Z,87
2022-08-31T05:34:06.097Z,87
2022-08-31T05:37:31.278Z,87
2022-08-31T05:40:56.443Z,87
2022-08-31T05:44:22.907Z,87
2022-08-31T05:47:46.783Z,87
2022-08-31T05:51:11.962Z,88
2022-08-31T05:54:37.119Z,87
2022-08-31T05:58:02.289Z,87
2022-08-31T06:01:27.524Z,87
2022-08-31T06:04:52.650Z,88
2022-08-31T06:08:17.821Z,88
2022-08-31T06:11:43.002Z,88
2022-08-31T06:15:08.187Z,89
2022-08-31T06:18:33.377Z,89
2022-08-31T06:21:58.558Z,89
2022-08-31T06:25:23.742Z,89
2022-08-31T06:28:48.915Z,89
2022-08-31T06:32:14.101Z,89
2022-08-31T06:35:39.293Z,89
2022-08-31T06:39:04.475Z,88
2022-08-31T06:42:29.644Z,89
2022-08-31T06:45:54.841Z,89
2022-08-31T06:49:19.973Z,89
2022-08-31T06:52:45.198Z,89
2022-08-31T06:56:14.227Z,88
2022-08-31T06:59:35.549Z,88
2022-08-31T07:03:00.771Z,88
2022-08-31T07:06:25.973Z,88
2022-08-31T07:09:51.178Z,87
2022-08-31T07:13:16.381Z,88
2022-08-31T07:16:41.629Z,87
2022-08-31T07:20:06.741Z,87
2022-08-31T07:23:31.931Z,87
2022-08-31T07:26:57.107Z,87
2022-08-31T07:30:22.299Z,87
2022-08-31T07:33:47.475Z,87
2022-08-31T07:37:12.652Z,87
2022-08-31T07:40:37.893Z,88
2022-08-31T07:44:03.017Z,87
2022-08-31T07:47:28.209Z,87
2022-08-31T07:50:53.405Z,87
2022-08-31T07:54:18.583Z,88
2022-08-31T07:57:43.783Z,88
2022-08-31T08:01:09.723Z,87
2022-08-31T08:04:34.886Z,88
2022-08-31T08:08:00.086Z,88
2022-08-31T08:11:25.239Z,88
2022-08-31T08:14:50.418Z,89
2022-08-31T08:18:15.625Z,88
2022-08-31T08:21:40.801Z,88
2022-08-31T08:25:05.984Z,88
2022-08-31T08:28:40.024Z,88
2022-08-31T08:31:56.677Z,87
2022-08-31T08:35:21.598Z,87
2022-08-31T08:38:46.778Z,88
2022-08-31T08:42:11.972Z,88
2022-08-31T08:45:37.245Z,87
2022-08-31T08:49:02.396Z,87
2022-08-31T08:52:27.585Z,87
2022-08-31T08:55:52.760Z,87
2022-08-31T08:59:19.798Z,86
2022-08-31T09:02:43.145Z,86
2022-08-31T09:06:08.293Z,87
2022-08-31T09:09:33.460Z,87
2022-08-31T09:12:58.638Z,87
2022-08-31T09:16:23.921Z,87
2022-08-31T09:19:49.012Z,87
2022-08-31T09:23:14.300Z,87
2022-08-31T09:26:39.353Z,87
2022-08-31T09:30:04.533Z,87
2022-08-31T09:33:29.702Z,87
2022-08-31T09:36:54.870Z,86
2022-08-31T09:40:23.216Z,86
2022-08-31T09:43:45.252Z,86
2022-08-31T09:47:10.438Z,88
2022-08-31T09:50:35.703Z,87
2022-08-31T09:54:00.773Z,86
2022-08-31T09:57:25.950Z,85
2022-08-31T10:00:51.131Z,84
2022-08-31T10:04:16.307Z,84
2022-08-31T10:07:41.499Z,83
2022-08-31T10:11:06.695Z,82
2022-08-31T10:14:31.870Z,81
2022-08-31T10:17:57.072Z,83
2022-08-31T10:21:22.256Z,81
2022-08-31T10:24:47.422Z,82
2022-08-31T10:28:12.601Z,82
2022-08-31T10:31:37.878Z,80
2022-08-31T10:35:02.998Z,80
2022-08-31T10:38:28.349Z,81
2022-08-31T10:41:53.539Z,79
2022-08-31T10:45:19.071Z,80
2022-08-31T10:48:43.917Z,80
2022-08-31T10:52:09.142Z,80
2022-08-31T10:55:34.300Z,80
2022-08-31T10:58:59.457Z,80
2022-08-31T11:02:24.628Z,80
2022-08-31T11:05:50.883Z,80
2022-08-31T11:09:15.032Z,79
2022-08-31T11:12:40.235Z,79
2022-08-31T11:16:05.485Z,79
2022-08-31T11:19:30.592Z,77
2022-08-31T11:22:55.814Z,77
2022-08-31T11:26:21.007Z,77
2022-08-31T11:29:46.207Z,77
2022-08-31T11:33:11.370Z,77
2022-08-31T11:36:36.543Z,75
2022-08-31T11:40:01.775Z,76
2022-08-31T11:43:26.983Z,76
2022-08-31T11:46:52.181Z,76
2022-08-31T11:50:17.368Z,75
2022-08-31T11:53:42.546Z,75
2022-08-31T11:57:07.760Z,75
2022-08-31T12:00:32.965Z,75
2022-08-31T12:03:58.144Z,75
2022-08-31T12:07:23.347Z,75
2022-08-31T12:10:48.561Z,74
2022-08-31T12:14:13.875Z,75
2022-08-31T12:17:39.076Z,75
2022-08-31T12:21:04.294Z,75
2022-08-31T12:24:29.686Z,75
2022-08-31T12:27:54.668Z,75
2022-08-31T12:31:19.965Z,75
2022-08-31T12:34:45.071Z,74
2022-08-31T12:38:10.271Z,75
2022-08-31T12:41:35.446Z,74
2022-08-31T12:45:00.635Z,74
2022-08-31T12:48:26.268Z,74
2022-08-31T12:51:51.131Z,74
2022-08-31T12:55:16.331Z,73
2022-08-31T12:58:41.507Z,73
2022-08-31T13:02:06.820Z,74
2022-08-31T13:05:31.905Z,75
2022-08-31T13:08:57.099Z,75
2022-08-31T13:12:22.249Z,74
2022-08-31T13:15:47.441Z,74
2022-08-31T13:19:12.642Z,74
2022-08-31T13:22:37.840Z,74
2022-08-31T13:26:03.027Z,74
2022-08-31T13:29:28.235Z,73
2022-08-31T13:32:53.419Z,73
2022-08-31T13:36:18.618Z,73
2022-08-31T13:39:43.806Z,72
2022-08-31T13:43:09.035Z,72
2022-08-31T13:46:42.672Z,72
2022-08-31T13:49:59.534Z,72
2022-08-31T13:53:26.899Z,71
2022-08-31T13:56:49.905Z,72
2022-08-31T14:00:15.099Z,72
2022-08-31T14:03:40.294Z,72
2022-08-31T14:07:05.534Z,71
2022-08-31T14:10:30.715Z,72
2022-08-31T14:13:55.938Z,73
2022-08-31T14:17:21.203Z,72
2022-08-31T14:21:03.909Z,72
2022-08-31T14:24:11.555Z,72
2022-08-31T14:27:36.753Z,72
2022-08-31T15:04:17.861Z,71
2022-08-31T15:07:43.037Z,70
2022-08-31T15:11:08.236Z,70
2022-08-31T15:14:33.411Z,71
2022-08-31T15:17:58.619Z,71
2022-08-31T15:21:23.802Z,71
2022-08-31T15:24:48.998Z,71
2022-08-31T15:28:14.242Z,70
2022-08-31T15:31:39.401Z,70
2022-08-31T15:35:04.545Z,69
2022-08-31T15:38:29.750Z,70
2022-08-31T15:41:54.935Z,71
2022-08-31T15:45:20.144Z,70
2022-08-31T15:48:45.324Z,71
2022-08-31T15:52:10.835Z,71
2022-08-31T15:55:36.486Z,71
2022-08-31T15:59:02.122Z,71
2022-08-31T16:02:27.805Z,70
2022-08-31T16:05:53.370Z,70
2022-08-31T16:09:18.983Z,70
2022-08-31T16:12:44.638Z,70
2022-08-31T16:16:10.310Z,70
2022-08-31T16:19:36.701Z,70
2022-08-31T16:23:02.310Z,70
2022-08-31T16:26:27.930Z,70
2022-08-31T16:29:53.556Z,71
2022-08-31T16:33:19.217Z,72
2022-08-31T16:36:44.792Z,71
2022-08-31T16:40:10.455Z,71
2022-08-31T16:43:36.063Z,71
2022-08-31T16:47:01.703Z,71
2022-08-31T16:50:27.347Z,71
2022-08-31T16:53:52.961Z,71
2022-08-31T16:57:18.587Z,71
2022-08-31T17:00:44.232Z,71
2022-08-31T17:04:09.815Z,71
2022-08-31T17:07:35.427Z,71
2022-08-31T17:11:01.049Z,71
2022-08-31T17:14:27.088Z,71
2022-08-31T17:17:52.740Z,71
2022-08-31T17:21:18.344Z,71
2022-08-31T17:24:43.965Z,71
2022-08-31T17:28:09.669Z,71
2022-08-31T17:31:35.361Z,72
2022-08-31T17:35:00.900Z,72
2022-08-31T17:38:30.566Z,72
2022-08-31T17:41:56.838Z,72
2022-08-31T17:45:22.428Z,72
2022-08-31T17:48:48.041Z,73
2022-08-31T17:52:13.645Z,72
2022-08-31T17:55:39.234Z,72
2022-08-31T17:59:04.865Z,72
2022-08-31T18:02:30.498Z,73
2022-08-31T18:05:56.102Z,73
2022-08-31T18:09:21.708Z,73
2022-08-31T18:12:47.337Z,73
2022-08-31T18:16:13.020Z,73
2022-08-31T18:19:38.580Z,73
2022-08-31T18:23:04.207Z,73
2022-08-31T18:26:29.871Z,73
2022-08-31T18:29:55.488Z,73
2022-08-31T18:33:21.336Z,73
2022-08-31T18:36:46.817Z,74
2022-08-31T18:40:12.532Z,74
2022-08-31T18:43:38.161Z,74
2022-08-31T18:47:03.897Z,74
2022-08-31T18:50:29.425Z,75
2022-08-31T18:53:55.037Z,75
2022-08-31T18:57:20.673Z,75
2022-08-31T19:00:46.363Z,75
2022-08-31T19:04:11.882Z,76
2022-08-31T19:07:37.478Z,76
2022-08-31T19:11:03.194Z,76
2022-08-31T19:14:28.670Z,76
2022-08-31T19:17:54.271Z,76
2022-08-31T19:21:19.874Z,76
2022-08-31T19:24:45.488Z,76
2022-08-31T19:28:11.106Z,76
2022-08-31T19:31:36.762Z,77
2022-08-31T19:35:02.332Z,77
2022-08-31T19:38:27.942Z,77
2022-08-31T19:41:53.546Z,77
2022-08-31T19:45:23.165Z,77
2022-08-31T19:48:44.781Z,77
2022-08-31T19:52:10.378Z,77
2022-08-31T19:55:35.979Z,77
2022-08-31T19:59:01.585Z,77
2022-08-31T20:02:27.360Z,77
2022-08-31T20:05:52.851Z,77
2022-08-31T20:09:18.493Z,77
2022-08-31T20:12:44.104Z,78
2022-08-31T20:16:09.767Z,78
2022-08-31T20:19:37.131Z,78
2022-08-31T20:23:00.933Z,78
2022-08-31T20:26:33.333Z,78
2022-08-31T20:29:52.171Z,78
2022-08-31T20:33:17.794Z,78
2022-08-31T20:36:43.400Z,78
2022-08-31T20:40:09.041Z,78
2022-08-31T20:43:34.622Z,78
2022-08-31T20:46:59.977Z,78
2022-08-31T20:50:25.144Z,78
2022-08-31T20:53:53.052Z,78
2022-08-31T20:57:18.235Z,78
2022-08-31T21:00:43.380Z,78
2022-08-31T21:04:08.565Z,78
2022-08-31T21:07:33.768Z,78
2022-08-31T21:10:58.940Z,78
2022-08-31T21:14:24.110Z,78
2022-08-31T21:17:49.288Z,78
2022-08-31T21:21:14.484Z,78
2022-08-31T21:24:39.652Z,78
2022-08-31T21:28:04.838Z,78
2022-08-31T21:31:30.145Z,78
2022-08-31T21:34:55.187Z,79
2022-08-31T21:38:20.354Z,78
2022-08-31T21:41:45.531Z,79
2022-08-31T21:45:10.701Z,79
2022-08-31T21:48:35.870Z,79
2022-08-31T21:52:01.052Z,79
2022-08-31T21:55:26.239Z,79
2022-08-31T21:58:51.457Z,79
2022-08-31T22:02:16.668Z,79
2022-08-31T22:05:41.825Z,79
2022-08-31T22:09:06.960Z,80
2022-08-31T22:12:32.128Z,80
2022-08-31T22:15:57.350Z,80
2022-08-31T22:19:22.454Z,80
2022-08-31T22:22:47.690Z,80
2022-08-31T22:26:12.819Z,80
2022-08-31T22:29:37.993Z,80
2022-08-31T22:33:03.162Z,80
2022-08-31T22:36:31.289Z,80
2022-08-31T22:39:53.490Z,80
2022-08-31T22:43:18.670Z,80
2022-08-31T22:46:43.928Z,80
2022-08-31T22:50:09.000Z,80
2022-08-31T22:53:34.188Z,81
2022-08-31T22:56:59.378Z,80
2022-08-31T23:00:24.529Z,80
2022-08-31T23:03:49.745Z,80
2022-08-31T23:07:14.879Z,81
2022-08-31T23:10:40.051Z,81
2022-08-31T23:14:07.394Z,80
2022-08-31T23:17:30.394Z,81
2022-08-31T23:20:55.567Z,80
2022-08-31T23:24:20.746Z,81
2022-08-31T23:27:45.944Z,80
2022-08-31T23:31:11.179Z,80
2022-08-31T23:34:36.257Z,80
2022-08-31T23:38:01.430Z,80
2022-08-31T23:41:26.640Z,80
2022-08-31T23:44:51.844Z,80
2022-08-31T23:48:17.006Z,80
2022-08-31T23:51:42.168Z,80
2022-08-31T23:55:07.370Z,80
2022-08-31T23:58:32.546Z,80
